sensor_id;sensor_type;location;lat;lon;timestamp;temperature;humidity
35085;SHT85;21267;51.032;6.998;2023-07-28T00:01:38;17.26;97.02
35085;SHT85;21267;51.032;6.998;2023-07-28T00:04:05;17.30;96.97
35085;SHT85;21267;51.032;6.998;2023-07-28T00:06:34;17.31;96.98
35085;SHT85;21267;51.032;6.998;2023-07-28T00:09:01;17.34;96.89
35085;SHT85;21267;51.032;6.998;2023-07-28T00:11:28;17.37;96.74
35085;SHT85;21267;51.032;6.998;2023-07-28T00:13:55;17.41;96.62
35085;SHT85;21267;51.032;6.998;2023-07-28T00:16:22;17.41;96.46
35085;SHT85;21267;51.032;6.998;2023-07-28T00:18:49;17.45;96.62
35085;SHT85;21267;51.032;6.998;2023-07-28T00:21:16;17.45;96.47
35085;SHT85;21267;51.032;6.998;2023-07-28T00:23:42;17.48;96.50
35085;SHT85;21267;51.032;6.998;2023-07-28T00:26:09;17.48;96.29
35085;SHT85;21267;51.032;6.998;2023-07-28T00:28:36;17.51;96.06
35085;SHT85;21267;51.032;6.998;2023-07-28T00:31:03;17.50;95.94
35085;SHT85;21267;51.032;6.998;2023-07-28T00:33:29;17.47;96.09
35085;SHT85;21267;51.032;6.998;2023-07-28T00:35:56;17.50;96.04
35085;SHT85;21267;51.032;6.998;2023-07-28T00:38:23;17.52;96.04
35085;SHT85;21267;51.032;6.998;2023-07-28T00:40:50;17.54;96.04
35085;SHT85;21267;51.032;6.998;2023-07-28T00:43:17;17.50;96.21
35085;SHT85;21267;51.032;6.998;2023-07-28T00:45:44;17.51;96.28
35085;SHT85;21267;51.032;6.998;2023-07-28T00:48:13;17.47;96.27
35085;SHT85;21267;51.032;6.998;2023-07-28T00:50:48;17.44;96.51
35085;SHT85;21267;51.032;6.998;2023-07-28T00:53:15;17.44;96.59
35085;SHT85;21267;51.032;6.998;2023-07-28T00:55:42;17.47;96.53
35085;SHT85;21267;51.032;6.998;2023-07-28T00:58:09;17.52;96.44
35085;SHT85;21267;51.032;6.998;2023-07-28T01:00:36;17.51;96.48
35085;SHT85;21267;51.032;6.998;2023-07-28T01:03:03;17.52;96.54
35085;SHT85;21267;51.032;6.998;2023-07-28T01:05:39;17.48;96.69
35085;SHT85;21267;51.032;6.998;2023-07-28T01:08:19;17.47;96.69
35085;SHT85;21267;51.032;6.998;2023-07-28T01:10:48;17.47;96.76
35085;SHT85;21267;51.032;6.998;2023-07-28T01:13:15;17.44;96.86
35085;SHT85;21267;51.032;6.998;2023-07-28T01:15:42;17.48;96.88
35085;SHT85;21267;51.032;6.998;2023-07-28T01:18:09;17.41;96.89
35085;SHT85;21267;51.032;6.998;2023-07-28T01:20:37;17.47;96.89
35085;SHT85;21267;51.032;6.998;2023-07-28T01:28:19;17.50;96.85
35085;SHT85;21267;51.032;6.998;2023-07-28T01:30:47;17.50;96.76
35085;SHT85;21267;51.032;6.998;2023-07-28T01:33:14;17.51;96.83
35085;SHT85;21267;51.032;6.998;2023-07-28T01:35:41;17.54;96.47
35085;SHT85;21267;51.032;6.998;2023-07-28T01:38:08;17.59;96.57
35085;SHT85;21267;51.032;6.998;2023-07-28T01:40:34;17.65;96.19
35085;SHT85;21267;51.032;6.998;2023-07-28T01:43:01;17.63;96.29
35085;SHT85;21267;51.032;6.998;2023-07-28T01:45:28;17.58;96.56
35085;SHT85;21267;51.032;6.998;2023-07-28T01:47:55;17.59;96.48
35085;SHT85;21267;51.032;6.998;2023-07-28T01:50:22;17.63;96.56
35085;SHT85;21267;51.032;6.998;2023-07-28T01:52:49;17.58;96.59
35085;SHT85;21267;51.032;6.998;2023-07-28T01:55:16;17.66;96.36
35085;SHT85;21267;51.032;6.998;2023-07-28T01:58:00;17.63;96.55
35085;SHT85;21267;51.032;6.998;2023-07-28T02:00:27;17.72;96.48
35085;SHT85;21267;51.032;6.998;2023-07-28T02:02:54;17.66;96.69
35085;SHT85;21267;51.032;6.998;2023-07-28T02:05:22;17.62;97.05
35085;SHT85;21267;51.032;6.998;2023-07-28T02:07:48;17.61;97.28
35085;SHT85;21267;51.032;6.998;2023-07-28T02:10:15;17.51;97.65
35085;SHT85;21267;51.032;6.998;2023-07-28T02:12:42;17.44;97.98
35085;SHT85;21267;51.032;6.998;2023-07-28T02:15:09;17.40;98.19
35085;SHT85;21267;51.032;6.998;2023-07-28T02:17:36;17.32;98.43
35085;SHT85;21267;51.032;6.998;2023-07-28T02:20:04;17.30;98.62
35085;SHT85;21267;51.032;6.998;2023-07-28T02:22:30;17.26;98.81
35085;SHT85;21267;51.032;6.998;2023-07-28T02:24:57;17.24;99.00
35085;SHT85;21267;51.032;6.998;2023-07-28T02:27:28;17.23;99.05
35085;SHT85;21267;51.032;6.998;2023-07-28T02:29:55;17.26;99.17
35085;SHT85;21267;51.032;6.998;2023-07-28T02:32:22;17.27;99.21
35085;SHT85;21267;51.032;6.998;2023-07-28T02:34:49;17.26;99.19
35085;SHT85;21267;51.032;6.998;2023-07-28T02:37:16;17.27;99.28
35085;SHT85;21267;51.032;6.998;2023-07-28T02:39:43;17.27;99.35
35085;SHT85;21267;51.032;6.998;2023-07-28T02:42:11;17.28;99.39
35085;SHT85;21267;51.032;6.998;2023-07-28T02:44:38;17.30;99.43
35085;SHT85;21267;51.032;6.998;2023-07-28T02:47:05;17.32;99.45
35085;SHT85;21267;51.032;6.998;2023-07-28T02:49:32;17.28;99.48
35085;SHT85;21267;51.032;6.998;2023-07-28T02:52:00;17.26;99.53
35085;SHT85;21267;51.032;6.998;2023-07-28T02:54:27;17.28;99.57
35085;SHT85;21267;51.032;6.998;2023-07-28T02:56:53;17.31;99.47
35085;SHT85;21267;51.032;6.998;2023-07-28T02:59:22;17.31;99.57
35085;SHT85;21267;51.032;6.998;2023-07-28T03:01:49;17.32;99.54
35085;SHT85;21267;51.032;6.998;2023-07-28T03:04:19;17.30;99.58
35085;SHT85;21267;51.032;6.998;2023-07-28T03:06:48;17.31;99.61
35085;SHT85;21267;51.032;6.998;2023-07-28T03:09:15;17.32;99.58
35085;SHT85;21267;51.032;6.998;2023-07-28T03:11:43;17.31;99.59
35085;SHT85;21267;51.032;6.998;2023-07-28T03:14:10;17.28;99.60
35085;SHT85;21267;51.032;6.998;2023-07-28T03:16:37;17.30;99.64
35085;SHT85;21267;51.032;6.998;2023-07-28T03:19:05;17.28;99.71
35085;SHT85;21267;51.032;6.998;2023-07-28T03:21:31;17.27;99.74
35085;SHT85;21267;51.032;6.998;2023-07-28T03:23:58;17.24;99.83
35085;SHT85;21267;51.032;6.998;2023-07-28T03:26:25;17.23;99.86
35085;SHT85;21267;51.032;6.998;2023-07-28T03:28:52;17.26;99.96
35085;SHT85;21267;51.032;6.998;2023-07-28T03:31:19;17.24;99.98
35085;SHT85;21267;51.032;6.998;2023-07-28T03:33:46;17.26;99.96
35085;SHT85;21267;51.032;6.998;2023-07-28T03:36:13;17.23;99.96
35085;SHT85;21267;51.032;6.998;2023-07-28T03:38:39;17.26;99.99
35085;SHT85;21267;51.032;6.998;2023-07-28T03:41:06;17.24;99.99
35085;SHT85;21267;51.032;6.998;2023-07-28T03:43:33;17.23;99.99
35085;SHT85;21267;51.032;6.998;2023-07-28T03:46:00;17.23;99.99
35085;SHT85;21267;51.032;6.998;2023-07-28T03:48:27;17.28;99.99
35085;SHT85;21267;51.032;6.998;2023-07-28T03:50:54;17.31;99.99
35085;SHT85;21267;51.032;6.998;2023-07-28T03:53:21;17.30;99.99
35085;SHT85;21267;51.032;6.998;2023-07-28T03:55:48;17.31;99.99
35085;SHT85;21267;51.032;6.998;2023-07-28T03:58:15;17.28;99.99
35085;SHT85;21267;51.032;6.998;2023-07-28T04:00:42;17.28;99.99
35085;SHT85;21267;51.032;6.998;2023-07-28T04:03:08;17.28;99.99
35085;SHT85;21267;51.032;6.998;2023-07-28T04:05:38;17.27;99.99
35085;SHT85;21267;51.032;6.998;2023-07-28T04:08:05;17.31;99.99
35085;SHT85;21267;51.032;6.998;2023-07-28T04:10:32;17.32;99.99
35085;SHT85;21267;51.032;6.998;2023-07-28T04:12:59;17.34;99.99
35085;SHT85;21267;51.032;6.998;2023-07-28T04:15:26;17.30;99.99
35085;SHT85;21267;51.032;6.998;2023-07-28T04:17:53;17.34;99.99
35085;SHT85;21267;51.032;6.998;2023-07-28T04:20:19;17.32;99.99
35085;SHT85;21267;51.032;6.998;2023-07-28T04:22:47;17.31;99.99
35085;SHT85;21267;51.032;6.998;2023-07-28T04:25:13;17.38;99.99
35085;SHT85;21267;51.032;6.998;2023-07-28T04:27:40;17.35;99.99
35085;SHT85;21267;51.032;6.998;2023-07-28T04:30:08;17.38;99.99
35085;SHT85;21267;51.032;6.998;2023-07-28T04:32:34;17.35;99.99
35085;SHT85;21267;51.032;6.998;2023-07-28T04:35:01;17.45;99.99
35085;SHT85;21267;51.032;6.998;2023-07-28T04:37:28;17.41;99.99
35085;SHT85;21267;51.032;6.998;2023-07-28T04:39:55;17.44;99.99
35085;SHT85;21267;51.032;6.998;2023-07-28T04:42:22;17.47;99.99
35085;SHT85;21267;51.032;6.998;2023-07-28T04:44:49;17.59;99.99
35085;SHT85;21267;51.032;6.998;2023-07-28T04:47:16;17.52;99.97
35085;SHT85;21267;51.032;6.998;2023-07-28T04:49:43;17.61;99.92
35085;SHT85;21267;51.032;6.998;2023-07-28T04:52:10;17.66;99.72
35085;SHT85;21267;51.032;6.998;2023-07-28T04:54:37;17.63;99.45
35085;SHT85;21267;51.032;6.998;2023-07-28T04:57:04;17.65;99.41
35085;SHT85;21267;51.032;6.998;2023-07-28T04:59:31;17.66;99.42
35085;SHT85;21267;51.032;6.998;2023-07-28T05:01:58;17.62;99.46
35085;SHT85;21267;51.032;6.998;2023-07-28T05:04:25;17.63;99.39
35085;SHT85;21267;51.032;6.998;2023-07-28T05:06:52;17.66;99.43
35085;SHT85;21267;51.032;6.998;2023-07-28T05:09:20;17.62;99.45
35085;SHT85;21267;51.032;6.998;2023-07-28T05:11:47;17.66;99.34
35085;SHT85;21267;51.032;6.998;2023-07-28T05:14:14;17.68;99.45
35085;SHT85;21267;51.032;6.998;2023-07-28T05:16:41;17.66;99.49
35085;SHT85;21267;51.032;6.998;2023-07-28T05:19:08;17.69;99.47
35085;SHT85;21267;51.032;6.998;2023-07-28T05:21:34;17.68;99.53
35085;SHT85;21267;51.032;6.998;2023-07-28T05:24:02;17.69;99.53
35085;SHT85;21267;51.032;6.998;2023-07-28T05:26:29;17.66;99.51
35085;SHT85;21267;51.032;6.998;2023-07-28T05:28:55;17.73;99.59
35085;SHT85;21267;51.032;6.998;2023-07-28T05:31:22;17.75;99.56
35085;SHT85;21267;51.032;6.998;2023-07-28T05:33:49;17.76;99.45
35085;SHT85;21267;51.032;6.998;2023-07-28T05:36:16;17.73;99.36
35085;SHT85;21267;51.032;6.998;2023-07-28T05:38:43;17.75;99.33
35085;SHT85;21267;51.032;6.998;2023-07-28T05:41:09;17.71;99.44
35085;SHT85;21267;51.032;6.998;2023-07-28T05:43:36;17.79;99.44
35085;SHT85;21267;51.032;6.998;2023-07-28T05:46:03;17.79;99.36
35085;SHT85;21267;51.032;6.998;2023-07-28T05:48:30;17.82;99.22
35085;SHT85;21267;51.032;6.998;2023-07-28T05:50:57;17.82;99.18
35085;SHT85;21267;51.032;6.998;2023-07-28T05:53:24;17.83;99.21
35085;SHT85;21267;51.032;6.998;2023-07-28T05:55:51;17.83;99.17
35085;SHT85;21267;51.032;6.998;2023-07-28T05:58:18;17.86;99.09
35085;SHT85;21267;51.032;6.998;2023-07-28T06:00:46;17.87;99.17
35085;SHT85;21267;51.032;6.998;2023-07-28T06:03:13;17.87;99.11
35085;SHT85;21267;51.032;6.998;2023-07-28T06:05:43;17.92;99.00
35085;SHT85;21267;51.032;6.998;2023-07-28T06:08:09;17.92;99.08
35085;SHT85;21267;51.032;6.998;2023-07-28T06:10:37;17.95;99.11
35085;SHT85;21267;51.032;6.998;2023-07-28T06:13:04;17.95;99.00
35085;SHT85;21267;51.032;6.998;2023-07-28T06:15:30;17.95;99.00
35085;SHT85;21267;51.032;6.998;2023-07-28T06:17:57;17.98;99.06
35085;SHT85;21267;51.032;6.998;2023-07-28T06:20:24;17.96;99.03
35085;SHT85;21267;51.032;6.998;2023-07-28T06:22:51;17.98;99.10
35085;SHT85;21267;51.032;6.998;2023-07-28T06:25:19;18.05;99.14
35085;SHT85;21267;51.032;6.998;2023-07-28T06:27:46;18.02;98.90
35085;SHT85;21267;51.032;6.998;2023-07-28T06:33:39;18.05;98.87
35085;SHT85;21267;51.032;6.998;2023-07-28T06:36:06;18.06;98.83
35085;SHT85;21267;51.032;6.998;2023-07-28T06:38:33;18.09;98.77
35085;SHT85;21267;51.032;6.998;2023-07-28T06:41:00;18.14;98.73
35085;SHT85;21267;51.032;6.998;2023-07-28T06:43:34;18.21;98.55
35085;SHT85;21267;51.032;6.998;2023-07-28T06:46:03;18.23;98.58
35085;SHT85;21267;51.032;6.998;2023-07-28T06:48:30;18.21;98.49
35085;SHT85;21267;51.032;6.998;2023-07-28T06:51:00;18.16;98.37
35085;SHT85;21267;51.032;6.998;2023-07-28T06:53:26;18.21;98.50
35085;SHT85;21267;51.032;6.998;2023-07-28T06:56:13;18.29;98.17
35085;SHT85;21267;51.032;6.998;2023-07-28T06:58:40;18.26;98.20
35085;SHT85;21267;51.032;6.998;2023-07-28T07:01:07;18.29;98.01
35085;SHT85;21267;51.032;6.998;2023-07-28T07:03:37;18.30;98.00
35085;SHT85;21267;51.032;6.998;2023-07-28T07:06:04;18.29;98.12
35085;SHT85;21267;51.032;6.998;2023-07-28T07:08:34;18.33;98.04
35085;SHT85;21267;51.032;6.998;2023-07-28T07:11:01;18.43;97.97
35085;SHT85;21267;51.032;6.998;2023-07-28T07:13:28;18.47;98.11
35085;SHT85;21267;51.032;6.998;2023-07-28T07:15:55;18.38;98.04
35085;SHT85;21267;51.032;6.998;2023-07-28T07:18:21;18.44;98.04
35085;SHT85;21267;51.032;6.998;2023-07-28T07:20:48;18.37;98.02
35085;SHT85;21267;51.032;6.998;2023-07-28T07:23:15;18.38;97.85
35085;SHT85;21267;51.032;6.998;2023-07-28T07:25:42;18.45;97.83
35085;SHT85;21267;51.032;6.998;2023-07-28T07:28:08;18.52;97.77
35085;SHT85;21267;51.032;6.998;2023-07-28T07:30:35;18.48;97.52
35085;SHT85;21267;51.032;6.998;2023-07-28T07:33:02;18.51;97.43
35085;SHT85;21267;51.032;6.998;2023-07-28T07:35:28;18.58;97.45
35085;SHT85;21267;51.032;6.998;2023-07-28T07:37:55;18.67;97.38
35085;SHT85;21267;51.032;6.998;2023-07-28T07:40:22;18.70;97.13
35085;SHT85;21267;51.032;6.998;2023-07-28T07:42:53;18.74;97.30
35085;SHT85;21267;51.032;6.998;2023-07-28T07:45:20;18.78;97.10
35085;SHT85;21267;51.032;6.998;2023-07-28T07:47:47;18.78;96.83
35085;SHT85;21267;51.032;6.998;2023-07-28T07:50:14;18.84;96.72
35085;SHT85;21267;51.032;6.998;2023-07-28T07:52:42;18.84;96.57
35085;SHT85;21267;51.032;6.998;2023-07-28T07:55:10;18.80;96.40
35085;SHT85;21267;51.032;6.998;2023-07-28T07:57:40;18.88;96.33
35085;SHT85;21267;51.032;6.998;2023-07-28T08:00:08;18.84;96.28
35085;SHT85;21267;51.032;6.998;2023-07-28T08:02:35;18.84;96.17
35085;SHT85;21267;51.032;6.998;2023-07-28T08:05:02;18.91;96.03
35085;SHT85;21267;51.032;6.998;2023-07-28T08:07:29;18.88;95.84
35085;SHT85;21267;51.032;6.998;2023-07-28T08:09:56;18.94;95.69
35085;SHT85;21267;51.032;6.998;2023-07-28T08:12:23;18.92;95.68
35085;SHT85;21267;51.032;6.998;2023-07-28T08:14:49;18.94;95.72
35085;SHT85;21267;51.032;6.998;2023-07-28T08:17:16;18.96;95.22
35085;SHT85;21267;51.032;6.998;2023-07-28T08:19:43;19.01;95.48
35085;SHT85;21267;51.032;6.998;2023-07-28T08:22:10;19.08;95.31
35085;SHT85;21267;51.032;6.998;2023-07-28T08:24:37;19.10;95.36
35085;SHT85;21267;51.032;6.998;2023-07-28T08:27:05;19.13;95.48
35085;SHT85;21267;51.032;6.998;2023-07-28T08:29:31;19.19;95.20
35085;SHT85;21267;51.032;6.998;2023-07-28T08:31:58;19.28;94.87
35085;SHT85;21267;51.032;6.998;2023-07-28T08:34:25;19.20;94.55
35085;SHT85;21267;51.032;6.998;2023-07-28T08:36:52;19.23;94.66
35085;SHT85;21267;51.032;6.998;2023-07-28T08:39:19;19.26;94.56
35085;SHT85;21267;51.032;6.998;2023-07-28T08:41:46;19.35;94.39
35085;SHT85;21267;51.032;6.998;2023-07-28T08:44:13;19.35;94.12
35085;SHT85;21267;51.032;6.998;2023-07-28T08:46:40;19.38;94.12
35085;SHT85;21267;51.032;6.998;2023-07-28T08:49:07;19.47;93.97
35085;SHT85;21267;51.032;6.998;2023-07-28T08:51:34;19.56;93.77
35085;SHT85;21267;51.032;6.998;2023-07-28T08:54:01;19.64;92.90
35085;SHT85;21267;51.032;6.998;2023-07-28T08:56:28;19.87;92.34
35085;SHT85;21267;51.032;6.998;2023-07-28T08:58:58;20.17;91.72
35085;SHT85;21267;51.032;6.998;2023-07-28T09:01:26;20.53;91.07
35085;SHT85;21267;51.032;6.998;2023-07-28T09:03:53;20.87;90.39
35085;SHT85;21267;51.032;6.998;2023-07-28T09:06:28;21.18;89.01
35085;SHT85;21267;51.032;6.998;2023-07-28T09:08:56;21.45;87.75
35085;SHT85;21267;51.032;6.998;2023-07-28T09:11:24;21.46;87.76
35085;SHT85;21267;51.032;6.998;2023-07-28T09:13:54;21.72;87.72
35085;SHT85;21267;51.032;6.998;2023-07-28T09:16:22;21.56;86.48
35085;SHT85;21267;51.032;6.998;2023-07-28T09:19:03;21.48;87.12
35085;SHT85;21267;51.032;6.998;2023-07-28T09:21:30;21.44;87.12
35085;SHT85;21267;51.032;6.998;2023-07-28T09:24:00;21.68;86.88
35085;SHT85;21267;51.032;6.998;2023-07-28T09:26:40;21.39;87.84
35085;SHT85;21267;51.032;6.998;2023-07-28T09:31:37;21.34;87.63
35085;SHT85;21267;51.032;6.998;2023-07-28T09:34:08;21.34;87.36
35085;SHT85;21267;51.032;6.998;2023-07-28T09:36:36;21.23;87.75
35085;SHT85;21267;51.032;6.998;2023-07-28T09:39:10;21.17;87.55
35085;SHT85;21267;51.032;6.998;2023-07-28T09:41:37;21.08;87.82
35085;SHT85;21267;51.032;6.998;2023-07-28T09:44:05;21.24;87.92
35085;SHT85;21267;51.032;6.998;2023-07-28T09:46:33;21.24;87.95
35085;SHT85;21267;51.032;6.998;2023-07-28T09:49:05;21.17;88.19
35085;SHT85;21267;51.032;6.998;2023-07-28T09:51:47;21.14;88.48
35085;SHT85;21267;51.032;6.998;2023-07-28T09:54:23;21.06;88.69
35085;SHT85;21267;51.032;6.998;2023-07-28T09:56:57;21.11;88.47
35085;SHT85;21267;51.032;6.998;2023-07-28T09:59:39;21.13;88.34
35085;SHT85;21267;51.032;6.998;2023-07-28T10:02:06;21.20;88.79
35085;SHT85;21267;51.032;6.998;2023-07-28T10:04:34;21.16;88.75
35085;SHT85;21267;51.032;6.998;2023-07-28T10:07:02;21.27;88.39
35085;SHT85;21267;51.032;6.998;2023-07-28T10:09:31;21.39;88.49
35085;SHT85;21267;51.032;6.998;2023-07-28T10:12:00;21.55;88.94
35085;SHT85;21267;51.032;6.998;2023-07-28T10:14:36;21.90;87.19
35085;SHT85;21267;51.032;6.998;2023-07-28T10:17:06;21.95;86.97
35085;SHT85;21267;51.032;6.998;2023-07-28T10:19:44;22.41;85.83
35085;SHT85;21267;51.032;6.998;2023-07-28T10:22:11;22.47;84.52
35085;SHT85;21267;51.032;6.998;2023-07-28T10:24:54;23.09;82.89
35085;SHT85;21267;51.032;6.998;2023-07-28T10:27:44;22.96;83.00
35085;SHT85;21267;51.032;6.998;2023-07-28T10:30:13;22.78;83.61
35085;SHT85;21267;51.032;6.998;2023-07-28T10:32:42;22.71;84.22
35085;SHT85;21267;51.032;6.998;2023-07-28T10:37:43;22.29;85.76
35085;SHT85;21267;51.032;6.998;2023-07-28T10:42:55;21.92;85.43
35085;SHT85;21267;51.032;6.998;2023-07-28T10:45:26;21.89;84.59
35085;SHT85;21267;51.032;6.998;2023-07-28T10:47:55;21.78;85.56
35085;SHT85;21267;51.032;6.998;2023-07-28T10:50:31;21.38;88.04
35085;SHT85;21267;51.032;6.998;2023-07-28T10:52:58;20.83;90.43
35085;SHT85;21267;51.032;6.998;2023-07-28T10:55:26;20.75;91.26
35085;SHT85;21267;51.032;6.998;2023-07-28T10:57:54;20.93;91.80
35085;SHT85;21267;51.032;6.998;2023-07-28T11:00:22;21.35;91.57
35085;SHT85;21267;51.032;6.998;2023-07-28T11:02:53;21.93;90.73
35085;SHT85;21267;51.032;6.998;2023-07-28T11:05:28;22.68;89.08
35085;SHT85;21267;51.032;6.998;2023-07-28T11:07:57;23.18;87.18
35085;SHT85;21267;51.032;6.998;2023-07-28T11:10:25;23.21;85.74
35085;SHT85;21267;51.032;6.998;2023-07-28T11:12:57;23.12;85.36
35085;SHT85;21267;51.032;6.998;2023-07-28T11:15:28;22.70;84.41
35085;SHT85;21267;51.032;6.998;2023-07-28T11:17:55;22.64;85.50
35085;SHT85;21267;51.032;6.998;2023-07-28T11:20:24;22.65;87.40
35085;SHT85;21267;51.032;6.998;2023-07-28T11:23:04;22.70;86.49
35085;SHT85;21267;51.032;6.998;2023-07-28T11:25:33;22.84;86.00
35085;SHT85;21267;51.032;6.998;2023-07-28T11:28:03;22.71;84.57
35085;SHT85;21267;51.032;6.998;2023-07-28T11:30:36;22.94;84.84
35085;SHT85;21267;51.032;6.998;2023-07-28T11:33:08;22.72;85.82
35085;SHT85;21267;51.032;6.998;2023-07-28T11:35:35;22.60;85.32
35085;SHT85;21267;51.032;6.998;2023-07-28T11:38:02;22.80;84.95
35085;SHT85;21267;51.032;6.998;2023-07-28T11:40:29;22.84;84.82
35085;SHT85;21267;51.032;6.998;2023-07-28T11:42:59;23.02;83.33
35085;SHT85;21267;51.032;6.998;2023-07-28T11:45:25;23.03;83.08
35085;SHT85;21267;51.032;6.998;2023-07-28T11:47:55;23.35;83.05
35085;SHT85;21267;51.032;6.998;2023-07-28T11:50:27;23.91;82.64
35085;SHT85;21267;51.032;6.998;2023-07-28T11:52:55;23.80;80.18
35085;SHT85;21267;51.032;6.998;2023-07-28T11:55:23;23.71;79.54
35085;SHT85;21267;51.032;6.998;2023-07-28T11:57:53;24.02;79.08
35085;SHT85;21267;51.032;6.998;2023-07-28T12:00:46;24.47;78.06
35085;SHT85;21267;51.032;6.998;2023-07-28T12:03:14;24.45;77.83
35085;SHT85;21267;51.032;6.998;2023-07-28T12:05:59;24.32;77.58
35085;SHT85;21267;51.032;6.998;2023-07-28T12:08:34;24.13;78.70
35085;SHT85;21267;51.032;6.998;2023-07-28T12:11:01;24.04;78.82
35085;SHT85;21267;51.032;6.998;2023-07-28T12:13:31;24.18;78.92
35085;SHT85;21267;51.032;6.998;2023-07-28T12:15:58;23.96;78.23
35085;SHT85;21267;51.032;6.998;2023-07-28T12:18:30;23.63;78.82
35085;SHT85;21267;51.032;6.998;2023-07-28T12:21:00;23.26;79.14
35085;SHT85;21267;51.032;6.998;2023-07-28T12:23:27;23.33;79.80
35085;SHT85;21267;51.032;6.998;2023-07-28T12:25:56;23.43;79.29
35085;SHT85;21267;51.032;6.998;2023-07-28T12:28:25;23.42;78.34
35085;SHT85;21267;51.032;6.998;2023-07-28T12:30:52;23.32;77.16
35085;SHT85;21267;51.032;6.998;2023-07-28T12:33:25;23.42;77.33
35085;SHT85;21267;51.032;6.998;2023-07-28T12:36:05;23.40;77.17
35085;SHT85;21267;51.032;6.998;2023-07-28T12:38:41;23.36;77.27
35085;SHT85;21267;51.032;6.998;2023-07-28T12:41:08;23.23;77.07
35085;SHT85;21267;51.032;6.998;2023-07-28T12:43:36;23.28;77.55
35085;SHT85;21267;51.032;6.998;2023-07-28T12:46:05;23.28;77.53
35085;SHT85;21267;51.032;6.998;2023-07-28T12:48:35;23.22;77.56
35085;SHT85;21267;51.032;6.998;2023-07-28T12:51:13;23.14;77.79
35085;SHT85;21267;51.032;6.998;2023-07-28T12:53:56;23.28;76.87
35085;SHT85;21267;51.032;6.998;2023-07-28T12:56:23;23.38;76.79
35085;SHT85;21267;51.032;6.998;2023-07-28T12:58:53;23.62;76.87
35085;SHT85;21267;51.032;6.998;2023-07-28T13:01:22;23.58;76.84
35085;SHT85;21267;51.032;6.998;2023-07-28T13:03:49;23.63;76.93
35085;SHT85;21267;51.032;6.998;2023-07-28T13:06:19;23.69;76.76
35085;SHT85;21267;51.032;6.998;2023-07-28T13:08:45;23.60;76.79
35085;SHT85;21267;51.032;6.998;2023-07-28T13:11:15;23.54;77.39
35085;SHT85;21267;51.032;6.998;2023-07-28T13:13:43;23.59;77.49
35085;SHT85;21267;51.032;6.998;2023-07-28T13:16:10;23.53;77.61
35085;SHT85;21267;51.032;6.998;2023-07-28T13:18:38;23.35;78.05
35085;SHT85;21267;51.032;6.998;2023-07-28T13:21:06;23.33;77.98
35085;SHT85;21267;51.032;6.998;2023-07-28T13:23:33;23.33;78.59
35085;SHT85;21267;51.032;6.998;2023-07-28T13:25:59;23.21;77.71
35085;SHT85;21267;51.032;6.998;2023-07-28T13:28:26;23.29;77.78
35085;SHT85;21267;51.032;6.998;2023-07-28T13:30:59;23.21;78.05
35085;SHT85;21267;51.032;6.998;2023-07-28T13:33:26;23.40;77.47
35085;SHT85;21267;51.032;6.998;2023-07-28T13:35:53;23.63;77.36
35085;SHT85;21267;51.032;6.998;2023-07-28T13:38:20;23.77;77.71
35085;SHT85;21267;51.032;6.998;2023-07-28T13:40:47;23.67;78.68
35085;SHT85;21267;51.032;6.998;2023-07-28T13:43:14;23.69;79.23
35085;SHT85;21267;51.032;6.998;2023-07-28T13:45:43;23.69;79.75
35085;SHT85;21267;51.032;6.998;2023-07-28T13:48:09;23.76;79.66
35085;SHT85;21267;51.032;6.998;2023-07-28T13:50:51;23.76;79.71
35085;SHT85;21267;51.032;6.998;2023-07-28T13:53:20;24.01;79.06
35085;SHT85;21267;51.032;6.998;2023-07-28T13:55:51;24.05;78.56
35085;SHT85;21267;51.032;6.998;2023-07-28T13:58:21;23.97;78.53
35085;SHT85;21267;51.032;6.998;2023-07-28T14:00:47;24.17;78.77
35085;SHT85;21267;51.032;6.998;2023-07-28T14:03:14;24.02;76.73
35085;SHT85;21267;51.032;6.998;2023-07-28T14:05:44;23.83;77.41
35085;SHT85;21267;51.032;6.998;2023-07-28T14:08:11;23.84;78.70
35085;SHT85;21267;51.032;6.998;2023-07-28T14:10:38;23.87;78.33
35085;SHT85;21267;51.032;6.998;2023-07-28T14:13:05;23.86;77.68
35085;SHT85;21267;51.032;6.998;2023-07-28T14:15:32;23.96;76.42
35085;SHT85;21267;51.032;6.998;2023-07-28T14:18:00;24.01;75.73
35085;SHT85;21267;51.032;6.998;2023-07-28T14:20:26;24.08;75.65
35085;SHT85;21267;51.032;6.998;2023-07-28T14:22:53;24.04;76.02
35085;SHT85;21267;51.032;6.998;2023-07-28T14:25:20;24.14;75.71
35085;SHT85;21267;51.032;6.998;2023-07-28T14:27:47;24.16;75.98
35085;SHT85;21267;51.032;6.998;2023-07-28T14:30:13;24.25;76.01
35085;SHT85;21267;51.032;6.998;2023-07-28T14:32:40;24.31;76.13
35085;SHT85;21267;51.032;6.998;2023-07-28T14:35:07;23.98;79.16
35085;SHT85;21267;51.032;6.998;2023-07-28T14:37:34;23.49;81.44
35085;SHT85;21267;51.032;6.998;2023-07-28T14:40:01;23.25;82.38
35085;SHT85;21267;51.032;6.998;2023-07-28T14:42:27;22.95;83.58
35085;SHT85;21267;51.032;6.998;2023-07-28T14:44:57;22.72;83.76
35085;SHT85;21267;51.032;6.998;2023-07-28T14:47:24;22.55;84.28
35085;SHT85;21267;51.032;6.998;2023-07-28T14:49:51;22.47;84.96
35085;SHT85;21267;51.032;6.998;2023-07-28T14:52:17;22.34;85.47
35085;SHT85;21267;51.032;6.998;2023-07-28T14:54:44;22.33;85.58
35085;SHT85;21267;51.032;6.998;2023-07-28T14:57:11;22.22;85.77
35085;SHT85;21267;51.032;6.998;2023-07-28T15:00:00;22.04;86.16
35085;SHT85;21267;51.032;6.998;2023-07-28T15:02:27;22.03;86.38
35085;SHT85;21267;51.032;6.998;2023-07-28T15:04:53;22.14;86.63
35085;SHT85;21267;51.032;6.998;2023-07-28T15:07:20;22.20;86.74
35085;SHT85;21267;51.032;6.998;2023-07-28T15:09:49;22.29;86.45
35085;SHT85;21267;51.032;6.998;2023-07-28T15:12:16;22.24;86.70
35085;SHT85;21267;51.032;6.998;2023-07-28T15:14:42;22.00;86.65
35085;SHT85;21267;51.032;6.998;2023-07-28T15:17:09;21.99;88.02
35085;SHT85;21267;51.032;6.998;2023-07-28T15:19:37;21.82;89.32
35085;SHT85;21267;51.032;6.998;2023-07-28T15:22:04;21.62;89.79
35085;SHT85;21267;51.032;6.998;2023-07-28T15:24:31;21.66;90.46
35085;SHT85;21267;51.032;6.998;2023-07-28T15:26:58;21.54;90.09
35085;SHT85;21267;51.032;6.998;2023-07-28T15:29:25;21.65;90.57
35085;SHT85;21267;51.032;6.998;2023-07-28T15:31:52;21.74;89.97
35085;SHT85;21267;51.032;6.998;2023-07-28T15:34:21;22.00;90.02
35085;SHT85;21267;51.032;6.998;2023-07-28T15:36:48;22.20;89.15
35085;SHT85;21267;51.032;6.998;2023-07-28T15:39:15;22.68;88.65
35085;SHT85;21267;51.032;6.998;2023-07-28T15:41:42;22.71;87.89
35085;SHT85;21267;51.032;6.998;2023-07-28T15:44:09;22.71;87.28
35085;SHT85;21267;51.032;6.998;2023-07-28T15:46:36;22.70;87.63
35085;SHT85;21267;51.032;6.998;2023-07-28T15:49:03;22.80;87.59
35085;SHT85;21267;51.032;6.998;2023-07-28T15:51:30;22.59;87.95
35085;SHT85;21267;51.032;6.998;2023-07-28T15:53:57;22.34;88.36